createdAt,value
2023-03-20T00:00:40.374Z,10.19
2023-03-20T00:01:40.351Z,10.04
2023-03-20T00:02:40.340Z,10.10
2023-03-20T00:03:40.369Z,10.07
2023-03-20T00:04:40.317Z,10.13
2023-03-20T00:05:40.279Z,10.07
2023-03-20T00:06:40.275Z,9.95
2023-03-20T00:07:40.244Z,10.07
2023-03-20T00:08:41.635Z,10.17
2023-03-20T00:09:40.214Z,10.05
2023-03-20T00:10:40.189Z,10.13
2023-03-20T00:11:40.171Z,10.15
2023-03-20T00:12:40.162Z,10.13
2023-03-20T00:13:40.165Z,10.07
2023-03-20T00:14:40.118Z,10.15
2023-03-20T00:15:40.131Z,10.09
2023-03-20T00:16:40.092Z,10.15
2023-03-20T00:17:40.064Z,10.07
2023-03-20T00:18:40.080Z,10.12
2023-03-20T00:19:40.038Z,10.09
2023-03-20T00:20:40.018Z,10.15
2023-03-20T00:21:40.026Z,10.12
2023-03-20T00:22:39.980Z,10.16
2023-03-20T00:23:40.003Z,10.19
2023-03-20T00:24:39.967Z,10.05
2023-03-20T00:25:39.938Z,10.15
2023-03-20T00:26:39.914Z,10.15
2023-03-20T00:27:39.893Z,10.07
2023-03-20T00:28:39.902Z,10.17
2023-03-20T00:29:39.858Z,10.25
2023-03-20T00:30:39.841Z,10.19
2023-03-20T00:31:39.885Z,10.16
2023-03-20T00:32:39.911Z,10.13
2023-03-20T00:33:39.815Z,10.22
2023-03-20T00:34:39.764Z,10.26
2023-03-20T00:35:39.780Z,10.20
2023-03-20T00:36:39.727Z,10.23
2023-03-20T00:37:39.711Z,10.25
2023-03-20T00:38:39.717Z,10.15
2023-03-20T00:39:39.678Z,10.20
2023-03-20T00:40:39.660Z,10.17
2023-03-20T00:41:40.635Z,10.17
2023-03-20T00:42:39.625Z,10.22
2023-03-20T00:43:39.633Z,10.19
2023-03-20T00:44:42.097Z,10.16
2023-03-20T00:45:39.569Z,10.23
2023-03-20T00:46:39.619Z,10.16
2023-03-20T00:47:39.541Z,10.25
2023-03-20T00:48:39.543Z,10.23
2023-03-20T00:49:39.500Z,10.17
2023-03-20T00:50:39.474Z,10.23
2023-03-20T00:51:39.484Z,10.16
2023-03-20T00:52:39.437Z,10.22
2023-03-20T00:53:39.446Z,10.20
2023-03-20T00:54:39.400Z,10.10
2023-03-20T00:55:39.384Z,10.15
2023-03-20T00:56:39.370Z,10.13
2023-03-20T00:57:39.354Z,10.13
2023-03-20T00:58:39.363Z,10.04
2023-03-20T00:59:39.320Z,10.17
2023-03-20T01:00:39.357Z,10.12
2023-03-20T01:01:39.365Z,10.15
2023-03-20T01:02:39.261Z,10.12
2023-03-20T01:03:40.770Z,10.09
2023-03-20T01:04:40.227Z,10.04
2023-03-20T01:05:39.212Z,10.07
2023-03-20T01:06:40.202Z,10.07
2023-03-20T01:07:39.174Z,10.07
2023-03-20T01:08:39.193Z,10.15
2023-03-20T01:09:39.142Z,10.04
2023-03-20T01:10:39.125Z,10.12
2023-03-20T01:11:39.107Z,10.09
2023-03-20T01:12:39.087Z,10.19
2023-03-20T01:13:39.114Z,10.12
2023-03-20T01:14:39.051Z,10.16
2023-03-20T01:15:39.038Z,10.10
2023-03-20T01:16:39.040Z,10.16
2023-03-20T01:17:39.005Z,10.22
2023-03-20T01:18:39.007Z,10.20
2023-03-20T01:19:38.967Z,10.31
2023-03-20T01:20:38.952Z,10.30
2023-03-20T01:21:38.930Z,10.30
2023-03-20T01:22:38.922Z,10.31
2023-03-20T01:23:38.920Z,10.25
2023-03-20T01:24:40.696Z,10.33
2023-03-20T01:25:39.852Z,10.28
2023-03-20T01:26:38.832Z,10.25
2023-03-20T01:27:38.829Z,10.07
2023-03-20T01:28:38.827Z,10.12
2023-03-20T01:29:38.778Z,10.23
2023-03-20T01:30:38.766Z,10.19
2023-03-20T01:31:38.768Z,10.28
2023-03-20T01:32:38.772Z,10.22
2023-03-20T01:33:38.736Z,10.25
2023-03-20T01:34:38.687Z,10.13
2023-03-20T01:35:38.768Z,10.20
2023-03-20T01:36:39.658Z,10.22
2023-03-20T01:37:38.638Z,10.23
2023-03-20T01:38:38.652Z,10.22
2023-03-20T01:39:38.607Z,10.23
2023-03-20T01:40:38.589Z,10.26
2023-03-20T01:41:38.568Z,10.28
2023-03-20T01:42:38.575Z,10.26
2023-03-20T01:43:38.563Z,10.26
2023-03-20T01:44:38.516Z,10.31
2023-03-20T01:45:38.922Z,10.30
2023-03-20T01:46:38.485Z,10.33
2023-03-20T01:47:38.469Z,10.35
2023-03-20T01:48:38.450Z,10.34
2023-03-20T01:49:38.463Z,10.35
2023-03-20T01:50:38.418Z,10.28
2023-03-20T01:51:38.408Z,10.34
2023-03-20T01:52:38.379Z,10.28
2023-03-20T01:53:38.366Z,10.25
2023-03-20T01:54:38.376Z,10.25
2023-03-20T01:55:38.333Z,10.25
2023-03-20T01:56:38.314Z,10.26
2023-03-20T01:57:38.307Z,10.23
2023-03-20T01:58:38.282Z,10.19
2023-03-20T01:59:38.315Z,10.26
2023-03-20T02:00:38.262Z,10.25
2023-03-20T02:01:38.365Z,10.31
2023-03-20T02:02:38.212Z,10.23
2023-03-20T02:03:38.196Z,10.17
2023-03-20T02:04:38.253Z,10.20
2023-03-20T02:05:38.315Z,10.12
2023-03-20T02:06:38.147Z,10.20
2023-03-20T02:07:38.130Z,10.15
2023-03-20T02:08:38.111Z,10.10
2023-03-20T02:09:38.121Z,10.12
2023-03-20T02:10:38.070Z,10.12
2023-03-20T02:11:38.994Z,10.13
2023-03-20T02:12:38.034Z,10.12
2023-03-20T02:13:38.020Z,10.17
2023-03-20T02:14:38.031Z,10.16
2023-03-20T02:15:38.197Z,9.98
2023-03-20T02:16:37.980Z,9.95
2023-03-20T02:17:37.951Z,10.02
2023-03-20T02:18:37.935Z,9.94
2023-03-20T02:19:37.939Z,9.89
2023-03-20T02:20:37.898Z,9.83
2023-03-20T02:21:37.877Z,10.01
2023-03-20T02:22:37.887Z,9.91
2023-03-20T02:23:37.837Z,9.89
2023-03-20T02:24:37.849Z,9.87
2023-03-20T02:25:38.147Z,9.83
2023-03-20T02:26:37.786Z,9.83
2023-03-20T02:27:37.764Z,9.72
2023-03-20T02:28:37.750Z,9.72
2023-03-20T02:29:37.760Z,9.65
2023-03-20T02:30:37.771Z,9.64
2023-03-20T02:31:37.704Z,9.66
2023-03-20T02:32:37.680Z,9.65
2023-03-20T02:33:37.661Z,9.61
2023-03-20T02:34:38.603Z,9.62
2023-03-20T02:35:37.912Z,9.69
2023-03-20T02:36:37.616Z,9.66
2023-03-20T02:37:37.586Z,9.65
2023-03-20T02:38:37.571Z,9.65
2023-03-20T02:39:37.591Z,9.66
2023-03-20T02:40:37.537Z,9.61
2023-03-20T02:41:37.601Z,9.68
2023-03-20T02:42:37.498Z,9.65
2023-03-20T02:43:37.485Z,9.69
2023-03-20T02:44:37.495Z,9.66
2023-03-20T02:45:37.697Z,9.61
2023-03-20T02:46:37.482Z,9.64
2023-03-20T02:47:37.411Z,9.59
2023-03-20T02:48:37.394Z,9.66
2023-03-20T02:49:37.407Z,9.64
2023-03-20T02:50:38.359Z,9.58
2023-03-20T02:51:37.348Z,9.61
2023-03-20T02:52:37.342Z,9.65
2023-03-20T02:53:37.318Z,9.59
2023-03-20T02:54:37.323Z,9.59
2023-03-20T02:55:37.405Z,9.58
2023-03-20T02:56:37.258Z,9.59
2023-03-20T02:57:37.238Z,9.50
2023-03-20T02:58:37.220Z,9.47
2023-03-20T02:59:37.238Z,9.48
2023-03-20T03:00:37.200Z,9.48
2023-03-20T03:01:37.355Z,9.58
2023-03-20T03:02:37.191Z,9.51
2023-03-20T03:03:37.136Z,9.56
2023-03-20T03:04:37.149Z,9.51
2023-03-20T03:05:37.339Z,9.54
2023-03-20T03:06:37.083Z,9.58
2023-03-20T03:07:37.064Z,9.48
2023-03-20T03:08:37.048Z,9.43
2023-03-20T03:09:37.071Z,9.51
2023-03-20T03:10:37.011Z,9.51
2023-03-20T03:11:36.996Z,9.56
2023-03-20T03:12:36.974Z,9.50
2023-03-20T03:13:36.956Z,9.54
2023-03-20T03:14:36.969Z,9.54
2023-03-20T03:15:37.215Z,9.54
2023-03-20T03:16:36.923Z,9.51
2023-03-20T03:17:36.893Z,9.51
2023-03-20T03:18:36.873Z,9.50
2023-03-20T03:19:36.903Z,9.46
2023-03-20T03:20:36.840Z,9.54
2023-03-20T03:21:36.826Z,9.50
2023-03-20T03:22:36.808Z,9.59
2023-03-20T03:23:36.792Z,9.54
2023-03-20T03:24:41.249Z,9.48
2023-03-20T03:25:38.756Z,9.48
2023-03-20T03:26:36.738Z,9.55
2023-03-20T03:27:36.721Z,9.51
2023-03-20T03:28:36.705Z,9.58
2023-03-20T03:29:36.729Z,9.55
2023-03-20T03:30:36.677Z,9.47
2023-03-20T03:31:36.680Z,9.50
2023-03-20T03:32:36.693Z,9.47
2023-03-20T03:33:36.616Z,9.44
2023-03-20T03:34:36.625Z,9.44
2023-03-20T03:35:36.802Z,9.51
2023-03-20T03:36:36.583Z,9.40
2023-03-20T03:37:37.556Z,9.41
2023-03-20T03:38:36.531Z,9.40
2023-03-20T03:39:36.559Z,9.44
2023-03-20T03:40:36.502Z,9.40
2023-03-20T03:41:36.479Z,9.47
2023-03-20T03:42:36.465Z,9.47
2023-03-20T03:43:36.457Z,9.51
2023-03-20T03:44:36.457Z,9.51
2023-03-20T03:45:36.697Z,9.55
2023-03-20T03:46:36.481Z,9.54
2023-03-20T03:47:36.378Z,9.47
2023-03-20T03:48:36.370Z,9.47
2023-03-20T03:49:36.496Z,9.43
2023-03-20T03:50:36.322Z,9.32
2023-03-20T03:51:36.314Z,9.37
2023-03-20T03:52:36.284Z,9.40
2023-03-20T03:53:36.263Z,9.44
2023-03-20T03:54:36.281Z,9.25
2023-03-20T03:55:36.658Z,9.41
2023-03-20T03:56:36.215Z,9.26
2023-03-20T03:57:36.208Z,9.26
2023-03-20T03:58:36.177Z,9.39
2023-03-20T03:59:36.200Z,9.37
2023-03-20T04:00:36.152Z,9.34
2023-03-20T04:01:36.174Z,9.32
2023-03-20T04:02:37.115Z,9.25
2023-03-20T04:03:36.095Z,9.23
2023-03-20T04:04:36.119Z,9.39
2023-03-20T04:05:36.367Z,9.40
2023-03-20T04:06:36.046Z,9.34
2023-03-20T04:07:36.027Z,9.32
2023-03-20T04:08:36.013Z,9.36
2023-03-20T04:09:36.026Z,9.29
2023-03-20T04:10:35.976Z,9.31
2023-03-20T04:11:35.959Z,9.22
2023-03-20T04:12:35.972Z,9.29
2023-03-20T04:13:35.946Z,9.28
2023-03-20T04:14:35.972Z,9.39
2023-03-20T04:15:36.211Z,9.37
2023-03-20T04:16:35.905Z,9.37
2023-03-20T04:17:36.472Z,9.22
2023-03-20T04:18:36.465Z,9.40
2023-03-20T04:19:35.852Z,9.34
2023-03-20T04:20:35.800Z,9.36
2023-03-20T04:21:35.788Z,9.29
2023-03-20T04:22:35.770Z,9.39
2023-03-20T04:23:35.755Z,9.43
2023-03-20T04:24:35.776Z,9.40
2023-03-20T04:25:36.006Z,9.36
2023-03-20T04:26:35.702Z,9.37
2023-03-20T04:27:35.684Z,9.28
2023-03-20T04:28:35.683Z,9.40
2023-03-20T04:29:38.121Z,9.23
2023-03-20T04:30:36.644Z,9.25
2023-03-20T04:31:35.682Z,9.32
2023-03-20T04:32:35.645Z,9.25
2023-03-20T04:33:35.584Z,9.34
2023-03-20T04:34:35.591Z,9.36
2023-03-20T04:35:35.941Z,9.25
2023-03-20T04:36:35.547Z,9.19
2023-03-20T04:37:35.519Z,9.34
2023-03-20T04:38:35.496Z,9.32
2023-03-20T04:39:35.497Z,9.32
2023-03-20T04:40:35.513Z,9.29
2023-03-20T04:41:35.444Z,9.32
2023-03-20T04:42:35.433Z,9.32
2023-03-20T04:43:35.427Z,9.37
2023-03-20T04:44:35.439Z,9.19
2023-03-20T04:45:35.603Z,9.25
2023-03-20T04:46:35.392Z,9.28
2023-03-20T04:47:35.334Z,9.29
2023-03-20T04:48:35.327Z,9.36
2023-03-20T04:49:35.301Z,9.31
2023-03-20T04:50:35.342Z,9.28
2023-03-20T04:51:35.270Z,9.23
2023-03-20T04:52:35.255Z,9.32
2023-03-20T04:53:35.236Z,9.28
2023-03-20T04:54:35.216Z,9.39
2023-03-20T04:55:35.599Z,9.25
2023-03-20T04:56:35.187Z,9.29
2023-03-20T04:57:35.187Z,9.28
2023-03-20T04:58:35.155Z,9.23
2023-03-20T04:59:35.134Z,9.36
2023-03-20T05:00:35.141Z,9.31
2023-03-20T05:01:35.093Z,9.39
2023-03-20T05:02:35.078Z,9.39
2023-03-20T05:03:35.077Z,9.36
2023-03-20T05:04:35.152Z,9.29
2023-03-20T05:05:35.282Z,9.26
2023-03-20T05:06:35.012Z,9.25
2023-03-20T05:07:34.996Z,9.19
2023-03-20T05:08:34.972Z,9.18
2023-03-20T05:09:34.963Z,9.26
2023-03-20T05:10:34.966Z,9.25
2023-03-20T05:11:34.924Z,9.16
2023-03-20T05:12:34.912Z,9.19
2023-03-20T05:13:34.883Z,9.36
2023-03-20T05:14:34.863Z,9.37
2023-03-20T05:15:35.208Z,9.40
2023-03-20T05:16:34.844Z,9.32
2023-03-20T05:17:34.809Z,9.36
2023-03-20T05:18:34.796Z,9.19
2023-03-20T05:19:34.774Z,9.23
2023-03-20T05:20:34.809Z,9.22
2023-03-20T05:21:34.734Z,9.26
2023-03-20T05:22:35.450Z,9.10
2023-03-20T05:23:34.702Z,9.10
2023-03-20T05:24:34.682Z,9.06
2023-03-20T05:25:34.955Z,9.21
2023-03-20T05:26:35.564Z,9.21
2023-03-20T05:27:34.635Z,9.19
2023-03-20T05:28:34.622Z,9.21
2023-03-20T05:29:34.613Z,9.14
2023-03-20T05:30:34.721Z,9.18
2023-03-20T05:31:34.606Z,9.16
2023-03-20T05:32:34.579Z,9.16
2023-03-20T05:33:37.914Z,9.18
2023-03-20T05:34:35.524Z,9.03
2023-03-20T05:35:34.919Z,9.18
2023-03-20T05:36:34.488Z,9.25
2023-03-20T05:37:34.466Z,9.21
2023-03-20T05:38:34.453Z,9.04
2023-03-20T05:39:34.436Z,9.21
2023-03-20T05:40:34.443Z,9.14
2023-03-20T05:41:34.402Z,9.28
2023-03-20T05:42:34.385Z,9.23
2023-03-20T05:43:34.367Z,9.25
2023-03-20T05:44:34.352Z,9.18
2023-03-20T05:45:34.650Z,9.23
2023-03-20T05:46:34.353Z,9.19
2023-03-20T05:47:35.059Z,9.28
2023-03-20T05:48:34.275Z,9.19
2023-03-20T05:49:34.262Z,9.19
2023-03-20T05:50:34.281Z,9.21
2023-03-20T05:51:34.231Z,9.29
2023-03-20T05:52:34.226Z,9.34
2023-03-20T05:53:34.204Z,9.28
2023-03-20T05:54:34.172Z,9.29
2023-03-20T05:55:34.598Z,9.23
2023-03-20T05:56:34.180Z,9.23
2023-03-20T05:57:34.164Z,9.18
2023-03-20T05:58:35.134Z,9.26
2023-03-20T05:59:34.101Z,9.37
2023-03-20T06:00:34.103Z,9.41
2023-03-20T06:01:34.060Z,9.39
2023-03-20T06:02:34.098Z,9.40
2023-03-20T06:03:34.036Z,9.37
2023-03-20T06:04:34.015Z,9.44
2023-03-20T06:05:34.290Z,9.34
2023-03-20T06:06:33.973Z,9.37
2023-03-20T06:07:33.956Z,9.28
2023-03-20T06:08:33.936Z,9.25
2023-03-20T06:09:33.918Z,9.36
2023-03-20T06:10:33.925Z,9.40
2023-03-20T06:11:36.855Z,9.44
2023-03-20T06:12:33.861Z,9.51
2023-03-20T06:13:33.859Z,9.51
2023-03-20T06:14:33.831Z,9.54
2023-03-20T06:15:34.151Z,9.56
2023-03-20T06:16:33.802Z,9.59
2023-03-20T06:17:33.805Z,9.61
2023-03-20T06:18:33.759Z,9.54
2023-03-20T06:19:33.761Z,9.51
2023-03-20T06:20:33.734Z,9.51
2023-03-20T06:21:33.703Z,9.44
2023-03-20T06:22:33.715Z,9.50
2023-03-20T06:23:33.673Z,9.61
2023-03-20T06:24:33.651Z,9.55
2023-03-20T06:25:33.814Z,9.47
2023-03-20T06:26:33.618Z,9.56
2023-03-20T06:27:33.608Z,9.58
2023-03-20T06:28:33.587Z,9.55
2023-03-20T06:29:33.573Z,9.54
2023-03-20T06:30:34.058Z,9.54
2023-03-20T06:31:33.571Z,9.51
2023-03-20T06:32:33.545Z,9.62
2023-03-20T06:33:33.488Z,9.56
2023-03-20T06:34:34.483Z,9.56
2023-03-20T06:35:33.573Z,9.47
2023-03-20T06:36:33.444Z,9.64
2023-03-20T06:37:33.456Z,9.65
2023-03-20T06:38:33.410Z,9.65
2023-03-20T06:39:33.390Z,9.44
2023-03-20T06:40:33.405Z,9.34
2023-03-20T06:41:34.868Z,9.23
2023-03-20T06:42:34.340Z,9.16
2023-03-20T06:43:33.326Z,9.19
2023-03-20T06:44:33.308Z,9.16
2023-03-20T06:45:33.473Z,9.19
2023-03-20T06:46:34.013Z,9.28
2023-03-20T06:47:33.258Z,9.40
2023-03-20T06:48:33.239Z,9.41
2023-03-20T06:49:33.242Z,9.43
2023-03-20T06:50:33.234Z,9.41
2023-03-20T06:51:33.197Z,9.31
2023-03-20T06:52:33.172Z,9.29
2023-03-20T06:53:33.153Z,9.41
2023-03-20T06:54:33.141Z,9.34
2023-03-20T06:55:34.180Z,9.36
2023-03-20T06:56:33.111Z,9.29
2023-03-20T06:57:33.128Z,9.37
2023-03-20T06:58:33.070Z,9.23
2023-03-20T06:59:33.230Z,9.22
2023-03-20T07:00:33.077Z,9.34
2023-03-20T07:01:33.073Z,9.36
2023-03-20T07:02:33.008Z,9.23
2023-03-20T07:03:32.985Z,9.28
2023-03-20T07:04:32.991Z,9.25
2023-03-20T07:05:34.159Z,9.08
2023-03-20T07:06:32.938Z,9.16
2023-03-20T07:07:32.928Z,9.23
2023-03-20T07:08:35.070Z,9.16
2023-03-20T07:09:34.902Z,9.21
2023-03-20T07:10:32.899Z,9.23
2023-03-20T07:11:32.863Z,9.36
2023-03-20T07:12:32.847Z,9.19
2023-03-20T07:13:32.831Z,9.29
2023-03-20T07:14:32.815Z,9.25
2023-03-20T07:15:32.814Z,9.32
2023-03-20T07:16:32.870Z,9.34
2023-03-20T07:17:32.751Z,9.36
2023-03-20T07:18:32.731Z,9.31
2023-03-20T07:19:32.712Z,9.40
2023-03-20T07:20:32.729Z,9.39
2023-03-20T07:21:32.679Z,9.36
2023-03-20T07:22:32.661Z,9.29
2023-03-20T07:23:32.676Z,9.32
2023-03-20T07:24:32.628Z,9.43
2023-03-20T07:25:42.162Z,9.50
2023-03-20T07:26:34.595Z,9.55
2023-03-20T07:27:32.580Z,9.40
2023-03-20T07:28:32.564Z,9.32
2023-03-20T07:29:32.554Z,9.43
2023-03-20T07:30:32.581Z,9.43
2023-03-20T07:31:32.620Z,9.41
2023-03-20T07:32:32.533Z,9.51
2023-03-20T07:33:32.602Z,9.56
2023-03-20T07:34:32.467Z,9.46
2023-03-20T07:35:32.545Z,9.58
2023-03-20T07:36:32.448Z,9.51
2023-03-20T07:37:32.414Z,9.50
2023-03-20T07:38:32.399Z,9.55
2023-03-20T07:39:33.042Z,9.64
2023-03-20T07:40:32.378Z,9.56
2023-03-20T07:41:32.376Z,9.62
2023-03-20T07:42:32.324Z,9.50
2023-03-20T07:43:32.346Z,9.50
2023-03-20T07:44:32.295Z,9.51
2023-03-20T07:45:32.372Z,9.47
2023-03-20T07:46:32.271Z,9.46
2023-03-20T07:47:32.269Z,9.54
2023-03-20T07:48:32.228Z,9.59
2023-03-20T07:49:32.218Z,9.55
2023-03-20T07:50:32.191Z,9.64
2023-03-20T07:51:32.202Z,9.66
2023-03-20T07:52:32.159Z,9.82
2023-03-20T07:53:32.152Z,9.79
2023-03-20T07:54:32.175Z,9.72
2023-03-20T07:55:32.105Z,9.80
2023-03-20T07:56:32.115Z,9.84
2023-03-20T07:57:32.083Z,9.80
2023-03-20T07:58:32.051Z,9.84
2023-03-20T07:59:32.040Z,9.80
2023-03-20T08:00:32.012Z,9.87
2023-03-20T08:01:32.033Z,9.80
2023-03-20T08:02:32.029Z,9.94
2023-03-20T08:03:32.083Z,9.97
2023-03-20T08:04:32.947Z,10.09
2023-03-20T08:05:31.932Z,10.20
2023-03-20T08:06:31.940Z,10.07
2023-03-20T08:07:32.022Z,10.07
2023-03-20T08:08:31.873Z,10.05
2023-03-20T08:09:32.853Z,10.23
2023-03-20T08:10:31.860Z,10.26
2023-03-20T08:11:34.195Z,10.25
2023-03-20T08:12:32.809Z,10.22
2023-03-20T08:13:31.791Z,10.17
2023-03-20T08:14:31.784Z,10.17
2023-03-20T08:15:31.756Z,10.25
2023-03-20T08:16:31.839Z,10.22
2023-03-20T08:17:31.767Z,10.35
2023-03-20T08:18:31.755Z,10.60
2023-03-20T08:19:31.683Z,10.76
2023-03-20T08:20:32.678Z,10.89
2023-03-20T08:21:31.692Z,10.99
2023-03-20T08:22:31.653Z,11.10
2023-03-20T08:23:31.854Z,11.26
2023-03-20T08:24:31.614Z,11.32
2023-03-20T08:25:31.585Z,11.59
2023-03-20T08:26:31.609Z,11.87
2023-03-20T08:27:31.546Z,12.21
2023-03-20T08:28:46.550Z,12.57
2023-03-20T08:29:33.524Z,12.67
2023-03-20T08:30:31.502Z,12.64
2023-03-20T08:31:31.507Z,12.72
2023-03-20T08:32:31.511Z,12.91
2023-03-20T08:33:31.430Z,13.05
2023-03-20T08:34:31.409Z,13.12
2023-03-20T08:35:33.703Z,13.19
2023-03-20T08:36:32.420Z,13.18
2023-03-20T08:37:31.362Z,13.11
2023-03-20T08:38:31.329Z,13.18
2023-03-20T08:39:31.305Z,13.01
2023-03-20T08:40:32.284Z,12.87
2023-03-20T08:41:31.298Z,12.82
2023-03-20T08:42:31.274Z,12.50
2023-03-20T08:43:31.224Z,12.47
2023-03-20T08:44:31.201Z,12.58
2023-03-20T08:45:31.193Z,12.64
2023-03-20T08:46:31.248Z,12.75
2023-03-20T08:47:31.144Z,12.85
2023-03-20T08:48:31.111Z,12.87
2023-03-20T08:49:31.104Z,12.98
2023-03-20T08:50:31.074Z,12.83
2023-03-20T08:51:31.086Z,12.82
2023-03-20T08:52:31.026Z,12.64
2023-03-20T08:53:31.044Z,12.39
2023-03-20T08:54:30.990Z,12.43
2023-03-20T08:55:30.955Z,12.39
2023-03-20T08:56:30.968Z,12.55
2023-03-20T08:57:30.919Z,12.75
2023-03-20T08:58:30.894Z,12.78
2023-03-20T08:59:30.886Z,12.91
2023-03-20T09:00:30.861Z,13.12
2023-03-20T09:01:47.949Z,13.12
2023-03-20T09:02:32.882Z,13.19
2023-03-20T09:03:30.784Z,13.12
2023-03-20T09:04:30.760Z,13.05
2023-03-20T09:05:32.392Z,13.20
2023-03-20T09:06:30.750Z,13.16
2023-03-20T09:07:30.700Z,13.11
2023-03-20T09:08:30.673Z,12.98
2023-03-20T09:09:30.654Z,13.04
2023-03-20T09:10:30.628Z,12.87
2023-03-20T09:11:30.649Z,12.85
2023-03-20T09:12:30.589Z,12.87
2023-03-20T09:13:30.565Z,12.86
2023-03-20T09:14:30.560Z,12.93
2023-03-20T09:15:30.516Z,12.90
2023-03-20T09:16:30.567Z,12.93
2023-03-20T09:17:30.470Z,13.04
2023-03-20T09:18:30.456Z,13.09
2023-03-20T09:19:31.765Z,13.08
2023-03-20T09:20:31.409Z,13.11
2023-03-20T09:21:30.425Z,13.15
2023-03-20T09:22:30.363Z,13.18
2023-03-20T09:23:30.344Z,13.03
2023-03-20T09:24:30.321Z,13.08
2023-03-20T09:25:30.299Z,13.12
2023-03-20T09:26:30.312Z,13.16
2023-03-20T09:27:30.258Z,13.22
2023-03-20T09:28:30.235Z,13.19
2023-03-20T09:29:30.219Z,13.20
2023-03-20T09:30:30.224Z,12.98
2023-03-20T09:31:30.293Z,13.18
2023-03-20T09:32:30.159Z,13.27
2023-03-20T09:33:30.141Z,13.20
2023-03-20T09:34:30.140Z,13.05
2023-03-20T09:35:30.092Z,12.94
2023-03-20T09:36:30.096Z,13.01
2023-03-20T09:37:30.044Z,13.09
2023-03-20T09:38:30.032Z,13.25
2023-03-20T09:39:30.002Z,13.42
2023-03-20T09:40:29.980Z,13.42
2023-03-20T09:41:30.098Z,13.41
2023-03-20T09:42:30.009Z,13.22
2023-03-20T09:43:29.928Z,13.42
2023-03-20T09:44:29.889Z,13.54
2023-03-20T09:45:29.873Z,13.59
2023-03-20T09:46:29.889Z,13.72
2023-03-20T09:47:30.017Z,13.85
2023-03-20T09:48:29.796Z,13.83
2023-03-20T09:49:29.785Z,13.97
2023-03-20T09:50:29.759Z,13.97
2023-03-20T09:51:29.770Z,13.89
2023-03-20T09:52:29.729Z,13.83
2023-03-20T09:53:29.695Z,13.65
2023-03-20T09:54:30.277Z,13.59
2023-03-20T09:55:29.649Z,13.50
2023-03-20T09:56:29.664Z,13.23
2023-03-20T09:57:29.600Z,13.16
2023-03-20T09:58:29.576Z,12.97
2023-03-20T09:59:29.558Z,12.80
2023-03-20T10:00:29.536Z,12.80
2023-03-20T10:01:29.561Z,12.85
2023-03-20T10:02:29.499Z,12.93
2023-03-20T10:03:29.470Z,13.11
2023-03-20T10:04:29.499Z,13.16
2023-03-20T10:05:30.453Z,13.20
2023-03-20T10:06:29.431Z,13.19
2023-03-20T10:07:29.379Z,13.28
2023-03-20T10:08:29.362Z,13.31
2023-03-20T10:09:29.335Z,13.23
2023-03-20T10:10:29.310Z,13.12
2023-03-20T10:11:29.318Z,13.03
2023-03-20T10:12:29.284Z,12.95
2023-03-20T10:13:29.248Z,12.79
2023-03-20T10:14:29.218Z,12.86
2023-03-20T10:15:29.206Z,12.91
2023-03-20T10:16:29.254Z,12.87
2023-03-20T10:17:29.163Z,12.73
2023-03-20T10:18:29.137Z,12.54
2023-03-20T10:19:29.124Z,12.49
2023-03-20T10:20:29.087Z,12.64
2023-03-20T10:21:29.092Z,12.79
2023-03-20T10:22:29.045Z,12.85
2023-03-20T10:23:29.258Z,12.87
2023-03-20T10:24:29.221Z,12.97
2023-03-20T10:25:28.988Z,13.04
2023-03-20T10:26:28.980Z,13.04
2023-03-20T10:27:28.932Z,13.15
2023-03-20T10:28:28.914Z,13.08
2023-03-20T10:29:28.896Z,13.20
2023-03-20T10:30:28.870Z,13.31
2023-03-20T10:31:28.920Z,13.09
2023-03-20T10:32:28.829Z,12.98
2023-03-20T10:33:28.812Z,12.95
2023-03-20T10:34:28.794Z,12.80
2023-03-20T10:35:28.767Z,12.78
2023-03-20T10:36:28.773Z,12.76
2023-03-20T10:37:28.717Z,12.73
2023-03-20T10:38:28.696Z,12.70
2023-03-20T10:39:28.675Z,12.78
2023-03-20T10:40:28.684Z,12.73
2023-03-20T10:41:28.673Z,12.90
2023-03-20T10:42:28.610Z,12.85
2023-03-20T10:43:28.592Z,13.08
2023-03-20T10:44:28.610Z,13.23
2023-03-20T10:45:28.547Z,13.18
2023-03-20T10:46:28.602Z,13.08
2023-03-20T10:47:28.561Z,13.22
2023-03-20T10:48:28.479Z,13.37
2023-03-20T10:49:28.460Z,13.44
2023-03-20T10:50:28.439Z,13.37
2023-03-20T10:51:28.415Z,13.35
2023-03-20T10:52:28.426Z,13.27
2023-03-20T10:53:28.369Z,13.37
2023-03-20T10:54:28.352Z,13.18
2023-03-20T10:55:28.336Z,13.04
2023-03-20T10:56:28.308Z,13.09
2023-03-20T10:57:28.314Z,13.13
2023-03-20T10:58:28.261Z,13.20
2023-03-20T10:59:28.241Z,13.05
2023-03-20T11:00:28.216Z,13.16
2023-03-20T11:01:28.339Z,13.15
2023-03-20T11:02:28.202Z,13.15
2023-03-20T11:03:28.153Z,13.11
2023-03-20T11:04:28.253Z,13.15
2023-03-20T11:05:28.114Z,13.19
2023-03-20T11:06:28.110Z,13.23
2023-03-20T11:07:28.103Z,13.18
2023-03-20T11:08:28.048Z,13.03
2023-03-20T11:09:28.033Z,12.97
2023-03-20T11:10:28.005Z,12.78
2023-03-20T11:11:28.057Z,12.78
2023-03-20T11:12:27.988Z,12.93
2023-03-20T11:13:27.948Z,13.09
2023-03-20T11:14:27.925Z,13.31
2023-03-20T11:15:27.891Z,13.56
2023-03-20T11:16:27.922Z,13.74
2023-03-20T11:17:27.883Z,13.86
2023-03-20T11:18:27.831Z,14.03
2023-03-20T11:19:27.818Z,13.96
2023-03-20T11:20:27.781Z,14.11
2023-03-20T11:21:27.765Z,13.93
2023-03-20T11:22:27.780Z,13.65
2023-03-20T11:23:27.718Z,13.72
2023-03-20T11:24:27.700Z,14.05
2023-03-20T11:25:27.862Z,14.29
2023-03-20T11:26:27.727Z,14.33
2023-03-20T11:27:28.184Z,14.43
2023-03-20T11:28:27.949Z,14.51
2023-03-20T11:29:27.582Z,14.41
2023-03-20T11:30:27.570Z,14.32
2023-03-20T11:31:27.600Z,14.23
2023-03-20T11:32:27.543Z,14.07
2023-03-20T11:33:27.510Z,13.87
2023-03-20T11:34:27.476Z,13.90
2023-03-20T11:35:27.497Z,14.00
2023-03-20T11:36:28.274Z,14.08
2023-03-20T11:37:28.441Z,14.20
2023-03-20T11:38:27.393Z,14.14
2023-03-20T11:39:27.370Z,13.96
2023-03-20T11:40:27.346Z,14.03
2023-03-20T11:41:27.322Z,14.07
2023-03-20T11:42:27.328Z,14.10
2023-03-20T11:43:27.325Z,13.85
2023-03-20T11:44:27.258Z,13.74
2023-03-20T11:45:27.241Z,13.89
2023-03-20T11:46:27.225Z,13.92
2023-03-20T11:47:27.235Z,14.11
2023-03-20T11:48:27.168Z,13.92
2023-03-20T11:49:27.148Z,14.08
2023-03-20T11:50:27.128Z,13.99
2023-03-20T11:51:27.101Z,13.90
2023-03-20T11:52:27.121Z,13.99
2023-03-20T11:53:27.078Z,13.95
2023-03-20T11:54:27.041Z,13.86
2023-03-20T11:55:27.023Z,13.97
2023-03-20T11:56:27.002Z,13.95
2023-03-20T11:57:27.010Z,13.93
2023-03-20T11:58:26.963Z,13.85
2023-03-20T11:59:26.939Z,13.83
2023-03-20T12:00:26.922Z,13.89
2023-03-20T12:01:26.905Z,13.70
2023-03-20T12:02:26.919Z,13.65
2023-03-20T12:03:26.876Z,13.77
2023-03-20T12:04:26.831Z,13.72
2023-03-20T12:05:26.864Z,13.71
2023-03-20T12:06:26.790Z,13.85
2023-03-20T12:07:26.797Z,13.83
2023-03-20T12:08:26.767Z,13.95
2023-03-20T12:09:26.915Z,13.93
2023-03-20T12:10:26.715Z,13.81
2023-03-20T12:11:26.697Z,13.63
2023-03-20T12:12:26.713Z,13.52
2023-03-20T12:13:26.650Z,13.62
2023-03-20T12:14:26.661Z,13.63
2023-03-20T12:15:26.611Z,13.65
2023-03-20T12:16:26.751Z,13.74
2023-03-20T12:17:26.607Z,13.74
2023-03-20T12:18:26.546Z,13.87
2023-03-20T12:19:26.535Z,13.90
2023-03-20T12:20:26.511Z,13.70
2023-03-20T12:21:26.493Z,13.89
2023-03-20T12:22:26.501Z,14.08
2023-03-20T12:23:26.465Z,13.99
2023-03-20T12:24:26.425Z,13.89
2023-03-20T12:25:26.407Z,13.72
2023-03-20T12:26:26.410Z,13.50
2023-03-20T12:27:26.379Z,13.42
2023-03-20T12:28:26.343Z,13.19
2023-03-20T12:29:26.329Z,13.23
2023-03-20T12:30:26.302Z,13.18
2023-03-20T12:31:26.302Z,13.15
2023-03-20T12:32:26.273Z,13.00
2023-03-20T12:33:26.240Z,13.20
2023-03-20T12:34:26.193Z,13.01
2023-03-20T12:35:26.377Z,12.93
2023-03-20T12:36:26.166Z,12.67
2023-03-20T12:37:26.191Z,12.68
2023-03-20T12:38:26.118Z,12.82
2023-03-20T12:39:26.148Z,12.85
2023-03-20T12:40:27.871Z,12.90
2023-03-20T12:41:27.047Z,13.03
2023-03-20T12:42:26.056Z,12.72
2023-03-20T12:43:26.010Z,12.60
2023-03-20T12:44:25.987Z,12.78
2023-03-20T12:45:25.961Z,12.68
2023-03-20T12:46:25.995Z,12.42
2023-03-20T12:47:25.965Z,12.60
2023-03-20T12:48:25.906Z,12.50
2023-03-20T12:49:25.876Z,12.58
2023-03-20T12:50:25.860Z,12.50
2023-03-20T12:51:25.831Z,12.64
2023-03-20T12:52:25.864Z,12.64
2023-03-20T12:53:25.807Z,12.78
2023-03-20T12:54:25.772Z,12.78
2023-03-20T12:55:25.811Z,12.94
2023-03-20T12:56:25.753Z,13.15
2023-03-20T12:57:25.752Z,13.08
2023-03-20T12:58:25.739Z,13.09
2023-03-20T12:59:25.701Z,13.15
2023-03-20T13:00:25.644Z,13.25
2023-03-20T13:01:25.651Z,13.38
2023-03-20T13:02:25.664Z,13.56
2023-03-20T13:03:25.590Z,13.47